sensor_id;sensor_type;location;lat;lon;timestamp;pressure;altitude;pressure_sealevel;temperature;humidity
61205;BME280;47068;55.780;37.520;2023-03-20T00:01:28;100418.94;;;2.02;56.07
61205;BME280;47068;55.780;37.520;2023-03-20T00:03:55;100427.66;;;2.03;57.13
61205;BME280;47068;55.780;37.520;2023-03-20T00:06:22;100435.72;;;2.00;57.12
61205;BME280;47068;55.780;37.520;2023-03-20T00:08:50;100433.28;;;1.96;57.31
61205;BME280;47068;55.780;37.520;2023-03-20T00:16:29;100398.72;;;1.60;57.65
61205;BME280;47068;55.780;37.520;2023-03-20T00:18:56;100441.31;;;1.79;57.87
61205;BME280;47068;55.780;37.520;2023-03-20T00:21:21;100440.72;;;1.74;57.72
61205;BME280;47068;55.780;37.520;2023-03-20T00:23:47;100405.25;;;1.53;57.67
61205;BME280;47068;55.780;37.520;2023-03-20T00:26:14;100430.50;;;1.70;57.78
61205;BME280;47068;55.780;37.520;2023-03-20T00:28:44;100442.19;;;1.64;58.09
61205;BME280;47068;55.780;37.520;2023-03-20T00:31:23;100441.63;;;1.59;58.39
61205;BME280;47068;55.780;37.520;2023-03-20T00:33:50;100435.63;;;1.57;57.83
61205;BME280;47068;55.780;37.520;2023-03-20T00:36:16;100426.16;;;1.54;58.52
61205;BME280;47068;55.780;37.520;2023-03-20T00:38:41;100414.41;;;1.46;58.00
61205;BME280;47068;55.780;37.520;2023-03-20T00:43:57;100382.75;;;1.19;58.63
61205;BME280;47068;55.780;37.520;2023-03-20T00:46:24;100417.22;;;1.43;58.84
61205;BME280;47068;55.780;37.520;2023-03-20T00:48:50;100189.06;;;-0.05;58.88
61205;BME280;47068;55.780;37.520;2023-03-20T00:51:16;100418.81;;;1.45;59.42
61205;BME280;47068;55.780;37.520;2023-03-20T00:53:42;100388.34;;;1.29;59.28
61205;BME280;47068;55.780;37.520;2023-03-20T00:56:31;100388.13;;;1.32;58.56
61205;BME280;47068;55.780;37.520;2023-03-20T00:58:59;100428.19;;;1.49;58.81
61205;BME280;47068;55.780;37.520;2023-03-20T01:01:27;100423.81;;;1.50;58.64
61205;BME280;47068;55.780;37.520;2023-03-20T01:03:52;100430.91;;;1.48;58.69
61205;BME280;47068;55.780;37.520;2023-03-20T01:06:18;100423.59;;;1.53;58.67
61205;BME280;47068;55.780;37.520;2023-03-20T01:08:43;100404.69;;;1.48;58.78
61205;BME280;47068;55.780;37.520;2023-03-20T01:11:11;100419.31;;;1.52;58.85
61205;BME280;47068;55.780;37.520;2023-03-20T01:13:38;100413.97;;;1.53;58.76
61205;BME280;47068;55.780;37.520;2023-03-20T01:16:05;100320.78;;;0.88;59.08
61205;BME280;47068;55.780;37.520;2023-03-20T01:18:32;100381.22;;;1.31;59.47
61205;BME280;47068;55.780;37.520;2023-03-20T01:20:58;100405.88;;;1.42;59.25
61205;BME280;47068;55.780;37.520;2023-03-20T01:23:24;100358.69;;;1.12;59.27
61205;BME280;47068;55.780;37.520;2023-03-20T01:25:51;100416.19;;;1.45;58.90
61205;BME280;47068;55.780;37.520;2023-03-20T01:28:20;100416.84;;;1.49;58.89
61205;BME280;47068;55.780;37.520;2023-03-20T01:30:46;100406.38;;;1.49;59.21
61205;BME280;47068;55.780;37.520;2023-03-20T01:33:18;100403.59;;;1.52;58.93
61205;BME280;47068;55.780;37.520;2023-03-20T01:35:44;100405.34;;;1.51;58.86
61205;BME280;47068;55.780;37.520;2023-03-20T01:38:23;100378.78;;;1.28;59.27
61205;BME280;47068;55.780;37.520;2023-03-20T01:40:58;100400.59;;;1.58;58.72
61205;BME280;47068;55.780;37.520;2023-03-20T01:43:26;100405.84;;;1.58;58.86
61205;BME280;47068;55.780;37.520;2023-03-20T01:46:00;100403.22;;;1.58;59.30
61205;BME280;47068;55.780;37.520;2023-03-20T01:48:35;100401.03;;;1.50;58.46
61205;BME280;47068;55.780;37.520;2023-03-20T01:51:23;100398.50;;;1.49;59.26
61205;BME280;47068;55.780;37.520;2023-03-20T01:54:06;100393.25;;;1.49;59.20
61205;BME280;47068;55.780;37.520;2023-03-20T01:56:36;100367.28;;;1.30;59.21
61205;BME280;47068;55.780;37.520;2023-03-20T01:59:09;100393.91;;;1.38;59.24
61205;BME280;47068;55.780;37.520;2023-03-20T02:01:37;100390.88;;;1.30;59.77
61205;BME280;47068;55.780;37.520;2023-03-20T02:04:04;100384.78;;;1.30;59.40
61205;BME280;47068;55.780;37.520;2023-03-20T02:06:30;100378.59;;;1.31;59.87
61205;BME280;47068;55.780;37.520;2023-03-20T02:08:56;100376.84;;;1.31;59.70
61205;BME280;47068;55.780;37.520;2023-03-20T02:11:23;100333.94;;;1.02;59.51
61205;BME280;47068;55.780;37.520;2023-03-20T02:13:52;100376.22;;;1.26;59.53
61205;BME280;47068;55.780;37.520;2023-03-20T02:16:19;100375.50;;;1.24;59.68
61205;BME280;47068;55.780;37.520;2023-03-20T02:18:47;100372.41;;;1.32;59.54
61205;BME280;47068;55.780;37.520;2023-03-20T02:45:54;100356.75;;;1.16;60.25
61205;BME280;47068;55.780;37.520;2023-03-20T02:50:56;100350.09;;;1.10;60.51
61205;BME280;47068;55.780;37.520;2023-03-20T02:58:50;100351.25;;;1.05;59.93
61205;BME280;47068;55.780;37.520;2023-03-20T03:01:26;100318.09;;;0.90;60.13
61205;BME280;47068;55.780;37.520;2023-03-20T03:03:59;100347.19;;;1.15;59.72
61205;BME280;47068;55.780;37.520;2023-03-20T03:06:30;100352.22;;;1.18;59.18
61205;BME280;47068;55.780;37.520;2023-03-20T03:11:40;100343.94;;;1.26;58.65
61205;BME280;47068;55.780;37.520;2023-03-20T03:14:13;100335.91;;;1.29;58.54
61205;BME280;47068;55.780;37.520;2023-03-20T03:16:42;100321.19;;;1.26;58.66
61205;BME280;47068;55.780;37.520;2023-03-20T03:19:15;100337.22;;;1.36;58.49
61205;BME280;47068;55.780;37.520;2023-03-20T03:21:45;100329.09;;;1.40;57.90
61205;BME280;47068;55.780;37.520;2023-03-20T03:24:28;100325.53;;;1.41;58.28
61205;BME280;47068;55.780;37.520;2023-03-20T03:26:57;100294.31;;;1.23;57.98
61205;BME280;47068;55.780;37.520;2023-03-20T03:29:25;100329.28;;;1.37;57.94
61205;BME280;47068;55.780;37.520;2023-03-20T03:31:53;100315.25;;;1.38;58.58
61205;BME280;47068;55.780;37.520;2023-03-20T03:34:20;100312.50;;;1.40;58.13
61205;BME280;47068;55.780;37.520;2023-03-20T03:37:04;100285.69;;;1.21;58.44
61205;BME280;47068;55.780;37.520;2023-03-20T03:39:53;100312.41;;;1.41;58.25
61205;BME280;47068;55.780;37.520;2023-03-20T03:42:24;100317.38;;;1.46;57.57
61205;BME280;47068;55.780;37.520;2023-03-20T03:47:42;100315.06;;;1.55;57.62
61205;BME280;47068;55.780;37.520;2023-03-20T03:50:18;100312.06;;;1.62;57.98
61205;BME280;47068;55.780;37.520;2023-03-20T03:52:46;100307.50;;;1.65;57.79
61205;BME280;47068;55.780;37.520;2023-03-20T03:55:21;100303.00;;;1.67;57.22
61205;BME280;47068;55.780;37.520;2023-03-20T03:57:56;100292.31;;;1.70;57.18
61205;BME280;47068;55.780;37.520;2023-03-20T04:00:25;100304.59;;;1.84;56.85
61205;BME280;47068;55.780;37.520;2023-03-20T04:02:55;100304.31;;;1.88;56.64
61205;BME280;47068;55.780;37.520;2023-03-20T04:05:23;100267.78;;;1.71;56.32
61205;BME280;47068;55.780;37.520;2023-03-20T04:07:53;100301.22;;;1.96;55.94
61205;BME280;47068;55.780;37.520;2023-03-20T04:10:19;100304.50;;;2.00;55.86
61205;BME280;47068;55.780;37.520;2023-03-20T04:12:45;100260.66;;;1.73;55.23
61205;BME280;47068;55.780;37.520;2023-03-20T04:15:13;100309.38;;;2.06;56.31
61205;BME280;47068;55.780;37.520;2023-03-20T04:17:39;100301.38;;;2.21;56.51
61205;BME280;47068;55.780;37.520;2023-03-20T04:20:05;100307.91;;;2.28;55.40
61205;BME280;47068;55.780;37.520;2023-03-20T04:22:31;100258.66;;;2.05;55.03
61205;BME280;47068;55.780;37.520;2023-03-20T04:25:00;100286.63;;;2.33;54.56
61205;BME280;47068;55.780;37.520;2023-03-20T04:27:26;100293.47;;;2.35;54.99
61205;BME280;47068;55.780;37.520;2023-03-20T04:29:53;100284.25;;;2.43;53.94
61205;BME280;47068;55.780;37.520;2023-03-20T04:32:18;100253.94;;;2.51;54.13
61205;BME280;47068;55.780;37.520;2023-03-20T04:34:44;100295.06;;;2.92;53.28
61205;BME280;47068;55.780;37.520;2023-03-20T04:37:09;100293.63;;;3.13;52.25
61205;BME280;47068;55.780;37.520;2023-03-20T04:39:35;100284.31;;;3.34;51.64
61205;BME280;47068;55.780;37.520;2023-03-20T04:42:02;100235.09;;;3.11;49.46
61205;BME280;47068;55.780;37.520;2023-03-20T04:44:27;100238.75;;;3.21;49.75
61205;BME280;47068;55.780;37.520;2023-03-20T04:46:53;100258.22;;;3.56;49.41
61205;BME280;47068;55.780;37.520;2023-03-20T04:49:18;100280.09;;;3.95;49.08
61205;BME280;47068;55.780;37.520;2023-03-20T04:51:44;100282.38;;;4.12;47.89
61205;BME280;47068;55.780;37.520;2023-03-20T04:54:09;100283.63;;;4.19;47.61
61205;BME280;47068;55.780;37.520;2023-03-20T04:56:35;100274.78;;;4.20;47.13
61205;BME280;47068;55.780;37.520;2023-03-20T04:59:00;100266.19;;;4.06;47.04
61205;BME280;47068;55.780;37.520;2023-03-20T05:01:26;100282.25;;;4.26;47.18
61205;BME280;47068;55.780;37.520;2023-03-20T05:03:51;100267.63;;;4.10;46.33
61205;BME280;47068;55.780;37.520;2023-03-20T05:06:17;100272.06;;;4.09;46.48
61205;BME280;47068;55.780;37.520;2023-03-20T05:08:42;100289.41;;;4.24;45.97
61205;BME280;47068;55.780;37.520;2023-03-20T05:11:08;100244.91;;;3.96;45.50
61205;BME280;47068;55.780;37.520;2023-03-20T05:13:34;100292.88;;;4.25;45.66
61205;BME280;47068;55.780;37.520;2023-03-20T05:15:59;100289.41;;;4.24;44.37
61205;BME280;47068;55.780;37.520;2023-03-20T05:18:26;100282.50;;;4.11;44.54
61205;BME280;47068;55.780;37.520;2023-03-20T05:20:52;100273.31;;;4.16;44.29
61205;BME280;47068;55.780;37.520;2023-03-20T05:23:17;100268.72;;;4.07;44.55
61205;BME280;47068;55.780;37.520;2023-03-20T05:25:43;100271.13;;;4.10;43.73
61205;BME280;47068;55.780;37.520;2023-03-20T05:28:08;100291.00;;;4.27;43.72
61205;BME280;47068;55.780;37.520;2023-03-20T05:30:34;100282.75;;;4.31;42.87
61205;BME280;47068;55.780;37.520;2023-03-20T05:32:59;100299.41;;;4.68;42.86
61205;BME280;47068;55.780;37.520;2023-03-20T05:35:25;100273.16;;;4.91;41.58
61205;BME280;47068;55.780;37.520;2023-03-20T05:37:50;100264.28;;;5.38;40.58
61205;BME280;47068;55.780;37.520;2023-03-20T05:40:16;100282.00;;;6.15;38.85
61205;BME280;47068;55.780;37.520;2023-03-20T05:42:44;100269.78;;;7.21;37.38
61205;BME280;47068;55.780;37.520;2023-03-20T05:45:10;100281.94;;;8.05;35.12
61205;BME280;47068;55.780;37.520;2023-03-20T05:47:36;100276.69;;;8.64;34.52
61205;BME280;47068;55.780;37.520;2023-03-20T05:50:02;100281.34;;;8.91;32.15
61205;BME280;47068;55.780;37.520;2023-03-20T05:52:28;100277.53;;;9.42;32.72
61205;BME280;47068;55.780;37.520;2023-03-20T05:54:56;100288.63;;;10.76;30.38
61205;BME280;47068;55.780;37.520;2023-03-20T05:57:21;100279.94;;;9.92;30.06
61205;BME280;47068;55.780;37.520;2023-03-20T05:59:47;100279.47;;;9.49;31.46
61205;BME280;47068;55.780;37.520;2023-03-20T06:02:12;100243.47;;;8.99;31.39
61205;BME280;47068;55.780;37.520;2023-03-20T06:04:40;100280.22;;;8.84;31.28
61205;BME280;47068;55.780;37.520;2023-03-20T06:07:05;100288.03;;;8.95;31.92
61205;BME280;47068;55.780;37.520;2023-03-20T06:09:31;100265.56;;;9.09;31.62
61205;BME280;47068;55.780;37.520;2023-03-20T06:11:58;100247.69;;;9.11;31.72
61205;BME280;47068;55.780;37.520;2023-03-20T06:14:23;100280.50;;;9.95;30.73
61205;BME280;47068;55.780;37.520;2023-03-20T06:16:49;100247.34;;;10.26;29.77
61205;BME280;47068;55.780;37.520;2023-03-20T06:19:17;100234.66;;;10.11;29.77
61205;BME280;47068;55.780;37.520;2023-03-20T06:21:42;100241.50;;;10.23;29.45
61205;BME280;47068;55.780;37.520;2023-03-20T06:24:08;100263.16;;;10.91;29.37
61205;BME280;47068;55.780;37.520;2023-03-20T06:26:33;100271.09;;;12.72;27.26
61205;BME280;47068;55.780;37.520;2023-03-20T06:28:58;100237.81;;;13.88;25.20
61205;BME280;47068;55.780;37.520;2023-03-20T06:31:24;100246.31;;;13.91;24.69
61205;BME280;47068;55.780;37.520;2023-03-20T06:33:49;100257.63;;;13.30;24.30
61205;BME280;47068;55.780;37.520;2023-03-20T06:36:15;100261.47;;;13.35;24.34
61205;BME280;47068;55.780;37.520;2023-03-20T06:38:41;100245.44;;;14.07;23.45
61205;BME280;47068;55.780;37.520;2023-03-20T06:41:06;100230.28;;;13.91;22.87
61205;BME280;47068;55.780;37.520;2023-03-20T06:43:32;100244.44;;;14.08;24.29
61205;BME280;47068;55.780;37.520;2023-03-20T06:45:57;100250.75;;;13.68;23.18
61205;BME280;47068;55.780;37.520;2023-03-20T06:48:23;100251.28;;;13.39;24.44
61205;BME280;47068;55.780;37.520;2023-03-20T06:50:49;100234.53;;;12.64;24.90
61205;BME280;47068;55.780;37.520;2023-03-20T06:53:15;100244.97;;;12.41;25.16
61205;BME280;47068;55.780;37.520;2023-03-20T06:55:42;100261.72;;;12.76;23.91
61205;BME280;47068;55.780;37.520;2023-03-20T06:58:10;100247.75;;;12.32;24.32
61205;BME280;47068;55.780;37.520;2023-03-20T07:00:36;100251.53;;;11.79;25.26
61205;BME280;47068;55.780;37.520;2023-03-20T07:03:01;100242.94;;;11.67;25.47
61205;BME280;47068;55.780;37.520;2023-03-20T07:05:27;100217.75;;;11.36;27.21
61205;BME280;47068;55.780;37.520;2023-03-20T07:07:53;100224.53;;;11.56;26.50
61205;BME280;47068;55.780;37.520;2023-03-20T07:10:18;100203.00;;;11.24;25.92
61205;BME280;47068;55.780;37.520;2023-03-20T07:12:44;100236.66;;;11.25;25.83
61205;BME280;47068;55.780;37.520;2023-03-20T07:15:10;100233.84;;;11.09;27.33
61205;BME280;47068;55.780;37.520;2023-03-20T07:17:35;100179.97;;;10.08;26.75
61205;BME280;47068;55.780;37.520;2023-03-20T07:20:02;100234.09;;;10.80;26.32
61205;BME280;47068;55.780;37.520;2023-03-20T07:22:28;100217.13;;;10.81;25.20
61205;BME280;47068;55.780;37.520;2023-03-20T07:24:54;100237.72;;;11.32;25.47
61205;BME280;47068;55.780;37.520;2023-03-20T07:27:20;100211.75;;;12.28;24.21
61205;BME280;47068;55.780;37.520;2023-03-20T07:29:46;100228.56;;;13.11;24.06
61205;BME280;47068;55.780;37.520;2023-03-20T07:32:11;100234.53;;;12.64;23.06
61205;BME280;47068;55.780;37.520;2023-03-20T07:34:37;100218.94;;;14.28;22.33
61205;BME280;47068;55.780;37.520;2023-03-20T07:37:03;100218.41;;;15.69;21.11
61205;BME280;47068;55.780;37.520;2023-03-20T07:39:29;100208.41;;;18.66;18.60
61205;BME280;47068;55.780;37.520;2023-03-20T07:41:54;100209.31;;;21.06;16.75
61205;BME280;47068;55.780;37.520;2023-03-20T07:44:20;100209.53;;;22.15;15.38
61205;BME280;47068;55.780;37.520;2023-03-20T07:46:46;100181.91;;;21.27;14.61
61205;BME280;47068;55.780;37.520;2023-03-20T07:49:13;100180.88;;;22.26;14.76
61205;BME280;47068;55.780;37.520;2023-03-20T07:51:38;100195.38;;;23.68;13.97
61205;BME280;47068;55.780;37.520;2023-03-20T07:54:04;100198.00;;;23.51;13.37
61205;BME280;47068;55.780;37.520;2023-03-20T07:56:30;100194.75;;;23.19;13.86
61205;BME280;47068;55.780;37.520;2023-03-20T07:58:55;100200.50;;;22.99;13.76
61205;BME280;47068;55.780;37.520;2023-03-20T08:01:21;100191.47;;;20.98;14.35
61205;BME280;47068;55.780;37.520;2023-03-20T08:03:46;100195.81;;;19.00;16.37
61205;BME280;47068;55.780;37.520;2023-03-20T08:06:11;100202.13;;;18.05;17.63
61205;BME280;47068;55.780;37.520;2023-03-20T08:08:37;100189.84;;;16.63;18.45
61205;BME280;47068;55.780;37.520;2023-03-20T08:11:02;100195.34;;;15.60;19.79
61205;BME280;47068;55.780;37.520;2023-03-20T08:13:28;100155.03;;;14.79;20.45
61205;BME280;47068;55.780;37.520;2023-03-20T08:15:53;100198.78;;;14.48;20.96
61205;BME280;47068;55.780;37.520;2023-03-20T08:18:19;100169.28;;;13.87;22.18
61205;BME280;47068;55.780;37.520;2023-03-20T08:20:46;100195.31;;;13.54;22.52
61205;BME280;47068;55.780;37.520;2023-03-20T08:23:17;100157.78;;;12.98;23.69
61205;BME280;47068;55.780;37.520;2023-03-20T08:25:49;100196.81;;;13.08;23.17
61205;BME280;47068;55.780;37.520;2023-03-20T08:28:15;100189.31;;;12.71;23.46
61205;BME280;47068;55.780;37.520;2023-03-20T08:30:41;100189.81;;;12.00;24.24
61205;BME280;47068;55.780;37.520;2023-03-20T08:33:07;100160.44;;;11.58;25.40
61205;BME280;47068;55.780;37.520;2023-03-20T08:35:33;100189.19;;;11.46;25.05
61205;BME280;47068;55.780;37.520;2023-03-20T08:37:58;100142.00;;;10.87;25.16
61205;BME280;47068;55.780;37.520;2023-03-20T08:40:24;100176.44;;;11.06;26.70
61205;BME280;47068;55.780;37.520;2023-03-20T08:42:50;100178.19;;;10.97;26.21
61205;BME280;47068;55.780;37.520;2023-03-20T08:45:15;100179.03;;;10.98;26.75
61205;BME280;47068;55.780;37.520;2023-03-20T08:47:41;100180.03;;;10.97;27.17
61205;BME280;47068;55.780;37.520;2023-03-20T08:50:07;100179.31;;;10.95;27.64
61205;BME280;47068;55.780;37.520;2023-03-20T08:52:33;100164.66;;;10.91;27.05
61205;BME280;47068;55.780;37.520;2023-03-20T08:54:59;100171.59;;;10.84;27.42
61205;BME280;47068;55.780;37.520;2023-03-20T08:57:24;100140.81;;;10.63;27.36
61205;BME280;47068;55.780;37.520;2023-03-20T08:59:50;100146.34;;;10.52;26.43
61205;BME280;47068;55.780;37.520;2023-03-20T09:02:15;100124.31;;;10.24;25.71
61205;BME280;47068;55.780;37.520;2023-03-20T09:04:41;100175.25;;;10.47;25.94
61205;BME280;47068;55.780;37.520;2023-03-20T09:07:07;100169.94;;;10.47;26.79
61205;BME280;47068;55.780;37.520;2023-03-20T09:09:32;100170.16;;;10.54;26.68
61205;BME280;47068;55.780;37.520;2023-03-20T09:11:59;100159.66;;;10.35;25.95
61205;BME280;47068;55.780;37.520;2023-03-20T09:14:25;100165.59;;;10.46;25.73
61205;BME280;47068;55.780;37.520;2023-03-20T09:16:51;100162.84;;;10.11;24.85
61205;BME280;47068;55.780;37.520;2023-03-20T09:19:17;100164.13;;;10.16;25.82
61205;BME280;47068;55.780;37.520;2023-03-20T09:21:43;100166.50;;;10.10;26.28
61205;BME280;47068;55.780;37.520;2023-03-20T09:24:09;100158.16;;;10.05;26.06
61205;BME280;47068;55.780;37.520;2023-03-20T09:26:36;100126.97;;;9.79;26.30
61205;BME280;47068;55.780;37.520;2023-03-20T09:29:02;100157.63;;;10.01;26.91
61205;BME280;47068;55.780;37.520;2023-03-20T09:31:28;100162.38;;;9.98;27.11
61205;BME280;47068;55.780;37.520;2023-03-20T09:33:53;100160.53;;;9.80;26.06
61205;BME280;47068;55.780;37.520;2023-03-20T09:36:19;100112.88;;;9.42;26.81
61205;BME280;47068;55.780;37.520;2023-03-20T09:38:44;100156.09;;;10.26;42.35
61205;BME280;47068;55.780;37.520;2023-03-20T09:41:21;100150.63;;;11.32;37.02
61205;BME280;47068;55.780;37.520;2023-03-20T09:51:50;100133.03;;;12.32;24.42
61205;BME280;47068;55.780;37.520;2023-03-20T09:54:34;100113.34;;;12.33;29.64
61205;BME280;47068;55.780;37.520;2023-03-20T09:57:01;100115.22;;;12.56;24.36
61205;BME280;47068;55.780;37.520;2023-03-20T09:59:29;100111.63;;;11.99;24.23
61205;BME280;47068;55.780;37.520;2023-03-20T10:02:00;100125.97;;;11.30;26.06
61205;BME280;47068;55.780;37.520;2023-03-20T10:04:29;100109.13;;;10.96;26.31
61205;BME280;47068;55.780;37.520;2023-03-20T10:06:55;100105.41;;;11.15;26.01
61205;BME280;47068;55.780;37.520;2023-03-20T10:09:23;100109.06;;;11.39;25.57
61205;BME280;47068;55.780;37.520;2023-03-20T10:15:09;100113.00;;;11.35;25.61
61205;BME280;47068;55.780;37.520;2023-03-20T10:20:37;100101.13;;;10.96;25.27
61205;BME280;47068;55.780;37.520;2023-03-20T10:23:17;100096.03;;;11.02;23.35
61205;BME280;47068;55.780;37.520;2023-03-20T10:25:55;100095.22;;;11.10;25.04
61205;BME280;47068;55.780;37.520;2023-03-20T10:42:00;99566.69;;;6.85;24.49
61205;BME280;47068;55.780;37.520;2023-03-20T10:44:40;100080.69;;;10.00;24.89
61205;BME280;47068;55.780;37.520;2023-03-20T10:47:09;100081.38;;;10.02;25.21
61205;BME280;47068;55.780;37.520;2023-03-20T10:49:39;100069.16;;;10.09;25.51
61205;BME280;47068;55.780;37.520;2023-03-20T10:52:17;100062.53;;;10.13;25.37
61205;BME280;47068;55.780;37.520;2023-03-20T10:54:48;100063.16;;;10.24;25.44
61205;BME280;47068;55.780;37.520;2023-03-20T10:57:23;100063.63;;;10.20;25.71
61205;BME280;47068;55.780;37.520;2023-03-20T10:59:51;100063.91;;;10.17;25.83
61205;BME280;47068;55.780;37.520;2023-03-20T11:02:18;100053.03;;;10.10;26.04
61205;BME280;47068;55.780;37.520;2023-03-20T11:04:44;100049.63;;;10.00;26.06
61205;BME280;47068;55.780;37.520;2023-03-20T11:10:14;100049.84;;;9.44;27.04
61205;BME280;47068;55.780;37.520;2023-03-20T11:12:48;100039.91;;;9.46;28.12
61205;BME280;47068;55.780;37.520;2023-03-20T11:17:58;100042.06;;;9.60;28.86
61205;BME280;47068;55.780;37.520;2023-03-20T11:20:26;100046.91;;;9.65;28.91
61205;BME280;47068;55.780;37.520;2023-03-20T11:22:58;100046.47;;;9.69;28.91
61205;BME280;47068;55.780;37.520;2023-03-20T11:25:32;100043.72;;;9.61;28.70
61205;BME280;47068;55.780;37.520;2023-03-20T11:28:37;99995.25;;;9.32;28.84
61205;BME280;47068;55.780;37.520;2023-03-20T11:33:39;100040.88;;;9.72;29.15
61205;BME280;47068;55.780;37.520;2023-03-20T11:36:24;100015.88;;;9.65;29.43
61205;BME280;47068;55.780;37.520;2023-03-20T11:38:52;100030.44;;;9.34;29.80
61205;BME280;47068;55.780;37.520;2023-03-20T11:41:25;100027.13;;;9.32;29.63
61205;BME280;47068;55.780;37.520;2023-03-20T11:43:51;100022.78;;;9.31;30.38
61205;BME280;47068;55.780;37.520;2023-03-20T11:46:18;100007.97;;;9.28;29.81
61205;BME280;47068;55.780;37.520;2023-03-20T11:48:46;100011.97;;;9.42;30.02
61205;BME280;47068;55.780;37.520;2023-03-20T11:51:18;99974.31;;;9.29;30.72
61205;BME280;47068;55.780;37.520;2023-03-20T11:56:24;100007.13;;;9.55;31.24
61205;BME280;47068;55.780;37.520;2023-03-20T12:01:26;100001.38;;;9.60;31.61
61205;BME280;47068;55.780;37.520;2023-03-20T12:04:09;99991.97;;;9.65;31.46
61205;BME280;47068;55.780;37.520;2023-03-20T12:09:32;99950.22;;;9.40;32.32
61205;BME280;47068;55.780;37.520;2023-03-20T12:12:39;99976.72;;;9.67;31.14
61205;BME280;47068;55.780;37.520;2023-03-20T12:25:56;99964.78;;;9.89;31.62
61205;BME280;47068;55.780;37.520;2023-03-20T12:31:38;99955.53;;;9.93;31.79
61205;BME280;47068;55.780;37.520;2023-03-20T12:34:13;99949.00;;;9.87;32.00
61205;BME280;47068;55.780;37.520;2023-03-20T12:36:43;99954.97;;;9.89;32.18
61205;BME280;47068;55.780;37.520;2023-03-20T12:39:14;99951.88;;;9.94;32.46
61205;BME280;47068;55.780;37.520;2023-03-20T12:50:37;99944.56;;;10.14;32.59
61205;BME280;47068;55.780;37.520;2023-03-20T13:01:19;99931.03;;;10.25;32.06
61205;BME280;47068;55.780;37.520;2023-03-20T13:03:54;99931.94;;;10.16;31.54
61205;BME280;47068;55.780;37.520;2023-03-20T13:12:26;99915.25;;;10.06;31.66
61205;BME280;47068;55.780;37.520;2023-03-20T13:17:49;99888.88;;;9.86;33.01
61205;BME280;47068;55.780;37.520;2023-03-20T13:23:32;99910.56;;;10.00;32.87
61205;BME280;47068;55.780;37.520;2023-03-20T13:26:21;99910.41;;;10.01;32.52
61205;BME280;47068;55.780;37.520;2023-03-20T13:34:21;99892.47;;;10.21;32.22
61205;BME280;47068;55.780;37.520;2023-03-20T13:37:06;99882.34;;;10.24;32.27
61205;BME280;47068;55.780;37.520;2023-03-20T13:39:39;99892.53;;;10.29;32.02
61205;BME280;47068;55.780;37.520;2023-03-20T13:42:13;99896.78;;;10.22;32.33
61205;BME280;47068;55.780;37.520;2023-03-20T13:44:40;99838.66;;;10.01;32.72
61205;BME280;47068;55.780;37.520;2023-03-20T13:47:11;99896.66;;;10.32;32.26
61205;BME280;47068;55.780;37.520;2023-03-20T13:52:44;99888.69;;;10.32;33.01
61205;BME280;47068;55.780;37.520;2023-03-20T14:00:42;99870.25;;;10.30;32.52
61205;BME280;47068;55.780;37.520;2023-03-20T14:03:27;99873.28;;;10.35;32.54
61205;BME280;47068;55.780;37.520;2023-03-20T14:05:54;99852.63;;;10.29;32.40
61205;BME280;47068;55.780;37.520;2023-03-20T14:08:32;99819.25;;;10.09;33.16
61205;BME280;47068;55.780;37.520;2023-03-20T14:13:35;99858.78;;;10.30;32.88
61205;BME280;47068;55.780;37.520;2023-03-20T14:16:09;99852.28;;;10.32;32.60
61205;BME280;47068;55.780;37.520;2023-03-20T14:18:36;99715.22;;;9.44;32.56
61205;BME280;47068;55.780;37.520;2023-03-20T14:21:10;99821.72;;;10.10;32.89
61205;BME280;47068;55.780;37.520;2023-03-20T14:23:39;99841.41;;;10.17;33.45
61205;BME280;47068;55.780;37.520;2023-03-20T14:31:26;99654.97;;;8.93;33.52
61205;BME280;47068;55.780;37.520;2023-03-20T14:34:23;99840.25;;;9.94;33.41
61205;BME280;47068;55.780;37.520;2023-03-20T14:37:03;99843.53;;;9.88;34.16
61205;BME280;47068;55.780;37.520;2023-03-20T14:42:50;99841.66;;;9.80;34.75
61205;BME280;47068;55.780;37.520;2023-03-20T14:45:40;99837.81;;;9.75;34.93
61205;BME280;47068;55.780;37.520;2023-03-20T14:53:17;99824.53;;;9.57;35.53
61205;BME280;47068;55.780;37.520;2023-03-20T15:01:07;99810.69;;;9.28;37.05
61205;BME280;47068;55.780;37.520;2023-03-20T15:03:35;99787.03;;;8.99;37.45
61205;BME280;47068;55.780;37.520;2023-03-20T15:06:05;99844.22;;;9.29;37.88
61205;BME280;47068;55.780;37.520;2023-03-20T15:08:43;99839.16;;;9.18;38.12
61205;BME280;47068;55.780;37.520;2023-03-20T15:11:12;99812.66;;;8.90;39.02
61205;BME280;47068;55.780;37.520;2023-03-20T15:13:39;99811.88;;;8.80;39.00
61205;BME280;47068;55.780;37.520;2023-03-20T15:16:08;99830.91;;;8.93;39.52
61205;BME280;47068;55.780;37.520;2023-03-20T15:18:43;99831.84;;;8.84;40.08
61205;BME280;47068;55.780;37.520;2023-03-20T15:21:20;99623.84;;;7.51;39.88
61205;BME280;47068;55.780;37.520;2023-03-20T15:23:47;99837.19;;;8.75;40.04
61205;BME280;47068;55.780;37.520;2023-03-20T15:26:14;99840.31;;;8.70;40.44
61205;BME280;47068;55.780;37.520;2023-03-20T15:28:41;99828.91;;;8.60;40.92
61205;BME280;47068;55.780;37.520;2023-03-20T15:31:23;99800.13;;;8.38;40.44
61205;BME280;47068;55.780;37.520;2023-03-20T15:33:49;99837.16;;;8.57;41.38
61205;BME280;47068;55.780;37.520;2023-03-20T15:36:18;99829.78;;;8.51;41.41
61205;BME280;47068;55.780;37.520;2023-03-20T15:38:45;99823.13;;;8.37;41.65
61205;BME280;47068;55.780;37.520;2023-03-20T15:41:27;99836.41;;;8.37;41.73
61205;BME280;47068;55.780;37.520;2023-03-20T15:43:53;99728.56;;;7.73;42.04
61205;BME280;47068;55.780;37.520;2023-03-20T15:46:24;99829.97;;;8.30;41.93